sensor_id;sensor_type;location;lat;lon;timestamp;pressure;altitude;pressure_sealevel;temperature;humidity
39435;BME280;66825;51.880;-0.518;2023-09-08T00:02:02;100680.81;;;25.39;46.15
39435;BME280;66825;51.880;-0.518;2023-09-08T00:04:28;100665.66;;;25.20;46.47
39435;BME280;66825;51.880;-0.518;2023-09-08T00:06:53;100611.16;;;24.89;46.30
39435;BME280;66825;51.880;-0.518;2023-09-08T00:09:19;100692.16;;;25.37;46.18
39435;BME280;66825;51.880;-0.518;2023-09-08T00:11:45;100693.34;;;25.36;46.15
39435;BME280;66825;51.880;-0.518;2023-09-08T00:14:10;100698.03;;;25.36;46.42
39435;BME280;66825;51.880;-0.518;2023-09-08T00:16:36;100692.50;;;25.36;46.32
39435;BME280;66825;51.880;-0.518;2023-09-08T00:19:02;100688.97;;;25.35;46.39
39435;BME280;66825;51.880;-0.518;2023-09-08T00:21:28;100680.13;;;25.30;46.51
39435;BME280;66825;51.880;-0.518;2023-09-08T00:23:53;100676.31;;;25.34;46.56
39435;BME280;66825;51.880;-0.518;2023-09-08T00:26:19;100682.97;;;25.33;46.42
39435;BME280;66825;51.880;-0.518;2023-09-08T00:28:45;100684.13;;;25.32;46.25
39435;BME280;66825;51.880;-0.518;2023-09-08T00:31:10;100691.63;;;25.32;46.44
39435;BME280;66825;51.880;-0.518;2023-09-08T00:33:36;100691.94;;;25.30;46.42
39435;BME280;66825;51.880;-0.518;2023-09-08T00:36:03;100690.00;;;25.31;46.60
39435;BME280;66825;51.880;-0.518;2023-09-08T00:38:28;100676.56;;;25.29;46.36
39435;BME280;66825;51.880;-0.518;2023-09-08T00:40:54;100675.75;;;25.29;46.55
39435;BME280;66825;51.880;-0.518;2023-09-08T00:43:19;100693.13;;;25.29;46.75
39435;BME280;66825;51.880;-0.518;2023-09-08T00:45:45;100684.38;;;25.27;46.41
39435;BME280;66825;51.880;-0.518;2023-09-08T00:48:11;100674.97;;;25.28;46.33
39435;BME280;66825;51.880;-0.518;2023-09-08T00:50:38;100678.88;;;25.27;46.64
39435;BME280;66825;51.880;-0.518;2023-09-08T00:53:05;100665.06;;;25.27;46.66
39435;BME280;66825;51.880;-0.518;2023-09-08T00:55:31;100663.47;;;25.26;46.63
39435;BME280;66825;51.880;-0.518;2023-09-08T00:57:57;100670.84;;;25.22;46.74
39435;BME280;66825;51.880;-0.518;2023-09-08T01:00:25;100675.06;;;25.19;46.56
39435;BME280;66825;51.880;-0.518;2023-09-08T01:02:50;100676.00;;;25.24;46.46
39435;BME280;66825;51.880;-0.518;2023-09-08T01:05:16;100671.63;;;25.23;46.75
39435;BME280;66825;51.880;-0.518;2023-09-08T01:07:42;100677.94;;;25.23;46.84
39435;BME280;66825;51.880;-0.518;2023-09-08T01:10:08;100682.66;;;25.23;46.62
39435;BME280;66825;51.880;-0.518;2023-09-08T01:12:34;100690.13;;;25.22;46.84
39435;BME280;66825;51.880;-0.518;2023-09-08T01:15:01;100670.84;;;25.22;46.86
39435;BME280;66825;51.880;-0.518;2023-09-08T01:17:27;100675.53;;;25.21;46.50
39435;BME280;66825;51.880;-0.518;2023-09-08T01:19:55;100601.31;;;24.76;46.57
39435;BME280;66825;51.880;-0.518;2023-09-08T01:25:13;100678.19;;;25.18;46.71
39435;BME280;66825;51.880;-0.518;2023-09-08T01:27:46;100676.25;;;25.18;46.83
39435;BME280;66825;51.880;-0.518;2023-09-08T01:30:12;100676.56;;;25.17;46.90
39435;BME280;66825;51.880;-0.518;2023-09-08T01:32:40;100670.28;;;25.16;46.72
39435;BME280;66825;51.880;-0.518;2023-09-08T01:35:06;100663.94;;;25.16;46.57
39435;BME280;66825;51.880;-0.518;2023-09-08T01:37:32;100668.19;;;25.13;46.59
39435;BME280;66825;51.880;-0.518;2023-09-08T01:39:58;100669.00;;;25.14;46.85
39435;BME280;66825;51.880;-0.518;2023-09-08T01:42:23;100658.78;;;25.14;46.77
39435;BME280;66825;51.880;-0.518;2023-09-08T01:44:49;100658.00;;;25.14;46.78
39435;BME280;66825;51.880;-0.518;2023-09-08T01:47:15;100660.75;;;25.14;46.67
39435;BME280;66825;51.880;-0.518;2023-09-08T01:49:41;100662.69;;;25.13;46.98
39435;BME280;66825;51.880;-0.518;2023-09-08T01:52:06;100667.41;;;25.13;46.98
39435;BME280;66825;51.880;-0.518;2023-09-08T01:54:32;100653.16;;;25.11;46.77
39435;BME280;66825;51.880;-0.518;2023-09-08T01:56:58;100656.72;;;25.11;46.55
39435;BME280;66825;51.880;-0.518;2023-09-08T01:59:23;100652.38;;;25.10;46.98
39435;BME280;66825;51.880;-0.518;2023-09-08T02:01:49;100662.56;;;25.10;46.92
39435;BME280;66825;51.880;-0.518;2023-09-08T02:04:14;100658.66;;;25.11;46.93
39435;BME280;66825;51.880;-0.518;2023-09-08T02:06:40;100665.31;;;25.10;46.70
39435;BME280;66825;51.880;-0.518;2023-09-08T02:09:05;100658.19;;;25.09;46.63
39435;BME280;66825;51.880;-0.518;2023-09-08T02:11:31;100669.22;;;25.09;46.74
39435;BME280;66825;51.880;-0.518;2023-09-08T02:13:56;100659.34;;;25.08;46.98
39435;BME280;66825;51.880;-0.518;2023-09-08T02:16:21;100652.25;;;25.07;46.97
39435;BME280;66825;51.880;-0.518;2023-09-08T02:18:47;100656.94;;;25.06;46.73
39435;BME280;66825;51.880;-0.518;2023-09-08T02:21:12;100653.41;;;25.05;47.04
39435;BME280;66825;51.880;-0.518;2023-09-08T02:23:38;100657.78;;;25.07;46.89
39435;BME280;66825;51.880;-0.518;2023-09-08T02:26:03;100659.69;;;25.06;46.63
39435;BME280;66825;51.880;-0.518;2023-09-08T02:28:29;100637.09;;;24.88;46.86
39435;BME280;66825;51.880;-0.518;2023-09-08T02:30:55;100646.63;;;24.90;47.05
39435;BME280;66825;51.880;-0.518;2023-09-08T02:36:09;100667.50;;;25.04;47.08
39435;BME280;66825;51.880;-0.518;2023-09-08T02:38:34;100670.25;;;25.04;46.74
39435;BME280;66825;51.880;-0.518;2023-09-08T02:41:00;100668.69;;;25.03;47.00
39435;BME280;66825;51.880;-0.518;2023-09-08T02:43:25;100669.81;;;25.02;46.98
39435;BME280;66825;51.880;-0.518;2023-09-08T02:45:50;100662.59;;;24.97;47.03
39435;BME280;66825;51.880;-0.518;2023-09-08T02:48:16;100673.25;;;24.99;46.72
39435;BME280;66825;51.880;-0.518;2023-09-08T02:50:43;100655.81;;;24.95;46.84
39435;BME280;66825;51.880;-0.518;2023-09-08T02:53:08;100666.59;;;25.00;46.83
39435;BME280;66825;51.880;-0.518;2023-09-08T02:55:34;100659.38;;;24.95;46.71
39435;BME280;66825;51.880;-0.518;2023-09-08T02:57:59;100600.72;;;24.57;47.17
39435;BME280;66825;51.880;-0.518;2023-09-08T03:00:25;100662.25;;;24.99;47.00
39435;BME280;66825;51.880;-0.518;2023-09-08T03:02:50;100659.47;;;24.99;47.20
39435;BME280;66825;51.880;-0.518;2023-09-08T03:05:16;100654.31;;;24.97;46.94
39435;BME280;66825;51.880;-0.518;2023-09-08T03:07:41;100617.84;;;24.76;47.07
39435;BME280;66825;51.880;-0.518;2023-09-08T03:10:07;100599.88;;;24.57;47.04
39435;BME280;66825;51.880;-0.518;2023-09-08T03:12:33;100659.00;;;24.97;46.85
39435;BME280;66825;51.880;-0.518;2023-09-08T03:15:00;100659.38;;;24.95;46.87
39435;BME280;66825;51.880;-0.518;2023-09-08T03:17:26;100657.31;;;24.92;47.23
39435;BME280;66825;51.880;-0.518;2023-09-08T03:19:51;100656.63;;;24.95;46.74
39435;BME280;66825;51.880;-0.518;2023-09-08T03:22:16;100654.22;;;24.94;47.16
39435;BME280;66825;51.880;-0.518;2023-09-08T03:24:42;100641.81;;;24.87;47.03
39435;BME280;66825;51.880;-0.518;2023-09-08T03:27:08;100654.22;;;24.94;47.23
39435;BME280;66825;51.880;-0.518;2023-09-08T03:29:33;100652.59;;;24.93;46.80
39435;BME280;66825;51.880;-0.518;2023-09-08T03:31:59;100649.84;;;24.93;46.90
39435;BME280;66825;51.880;-0.518;2023-09-08T03:34:24;100652.97;;;24.91;47.25
39435;BME280;66825;51.880;-0.518;2023-09-08T03:36:50;100639.19;;;24.91;47.08
39435;BME280;66825;51.880;-0.518;2023-09-08T03:39:15;100641.47;;;24.89;47.09
39435;BME280;66825;51.880;-0.518;2023-09-08T03:41:41;100609.00;;;24.70;46.81
39435;BME280;66825;51.880;-0.518;2023-09-08T03:44:06;100553.88;;;24.33;47.15
39435;BME280;66825;51.880;-0.518;2023-09-08T03:46:31;100633.56;;;24.87;46.86
39435;BME280;66825;51.880;-0.518;2023-09-08T03:48:57;100573.41;;;24.52;47.18
39435;BME280;66825;51.880;-0.518;2023-09-08T03:51:26;100625.38;;;24.79;47.10
39435;BME280;66825;51.880;-0.518;2023-09-08T03:53:53;100611.97;;;24.77;47.15
39435;BME280;66825;51.880;-0.518;2023-09-08T03:56:18;100626.78;;;24.85;47.04
39435;BME280;66825;51.880;-0.518;2023-09-08T03:58:45;100633.88;;;24.86;47.24
39435;BME280;66825;51.880;-0.518;2023-09-08T04:01:11;100643.75;;;24.87;46.92
39435;BME280;66825;51.880;-0.518;2023-09-08T04:03:37;100642.97;;;24.86;47.11
39435;BME280;66825;51.880;-0.518;2023-09-08T04:06:02;100639.28;;;24.82;47.26
39435;BME280;66825;51.880;-0.518;2023-09-08T04:08:28;100638.59;;;24.85;46.94
39435;BME280;66825;51.880;-0.518;2023-09-08T04:10:54;100644.09;;;24.85;47.04
39435;BME280;66825;51.880;-0.518;2023-09-08T04:13:19;100648.84;;;24.85;47.31
39435;BME280;66825;51.880;-0.518;2023-09-08T04:15:45;100653.53;;;24.84;47.23
39435;BME280;66825;51.880;-0.518;2023-09-08T04:18:10;100648.72;;;24.81;47.28
39435;BME280;66825;51.880;-0.518;2023-09-08T04:20:36;100645.59;;;24.83;47.28
39435;BME280;66825;51.880;-0.518;2023-09-08T04:23:01;100659.38;;;24.83;46.93
39435;BME280;66825;51.880;-0.518;2023-09-08T04:25:27;100619.75;;;24.63;47.27
39435;BME280;66825;51.880;-0.518;2023-09-08T04:27:52;100655.03;;;24.82;47.14
39435;BME280;66825;51.880;-0.518;2023-09-08T04:30:18;100667.19;;;24.81;47.33
39435;BME280;66825;51.880;-0.518;2023-09-08T04:32:43;100674.66;;;24.80;47.18
39435;BME280;66825;51.880;-0.518;2023-09-08T04:35:09;100672.69;;;24.81;47.18
39435;BME280;66825;51.880;-0.518;2023-09-08T04:37:35;100671.09;;;24.80;47.05
39435;BME280;66825;51.880;-0.518;2023-09-08T04:40:02;100651.81;;;24.67;47.31
39435;BME280;66825;51.880;-0.518;2023-09-08T04:42:28;100676.59;;;24.80;47.37
39435;BME280;66825;51.880;-0.518;2023-09-08T04:44:54;100673.28;;;24.74;47.08
39435;BME280;66825;51.880;-0.518;2023-09-08T04:47:20;100676.94;;;24.78;47.29
39435;BME280;66825;51.880;-0.518;2023-09-08T04:49:45;100671.78;;;24.77;47.14
39435;BME280;66825;51.880;-0.518;2023-09-08T04:52:11;100678.91;;;24.78;47.40
39435;BME280;66825;51.880;-0.518;2023-09-08T04:54:36;100682.81;;;24.77;47.00
39435;BME280;66825;51.880;-0.518;2023-09-08T04:57:02;100681.19;;;24.76;47.34
39435;BME280;66825;51.880;-0.518;2023-09-08T04:59:28;100683.94;;;24.76;46.95
39435;BME280;66825;51.880;-0.518;2023-09-08T05:01:53;100681.88;;;24.72;47.11
39435;BME280;66825;51.880;-0.518;2023-09-08T05:04:19;100687.50;;;24.76;47.07
39435;BME280;66825;51.880;-0.518;2023-09-08T05:06:44;100682.69;;;24.73;47.22
39435;BME280;66825;51.880;-0.518;2023-09-08T05:09:10;100684.63;;;24.72;47.39
39435;BME280;66825;51.880;-0.518;2023-09-08T05:11:35;100679.13;;;24.72;47.26
39435;BME280;66825;51.880;-0.518;2023-09-08T05:14:02;100684.63;;;24.72;47.05
39435;BME280;66825;51.880;-0.518;2023-09-08T05:16:27;100677.06;;;24.69;47.22
39435;BME280;66825;51.880;-0.518;2023-09-08T05:19:04;100686.47;;;24.68;47.24
39435;BME280;66825;51.880;-0.518;2023-09-08T05:21:31;100684.88;;;24.67;47.13
39435;BME280;66825;51.880;-0.518;2023-09-08T05:23:57;100684.19;;;24.70;47.10
39435;BME280;66825;51.880;-0.518;2023-09-08T05:26:22;100668.63;;;24.53;47.07
39435;BME280;66825;51.880;-0.518;2023-09-08T05:28:48;100703.47;;;24.70;47.43
39435;BME280;66825;51.880;-0.518;2023-09-08T05:31:13;100708.97;;;24.70;47.15
39435;BME280;66825;51.880;-0.518;2023-09-08T05:33:38;100708.97;;;24.70;47.35
39435;BME280;66825;51.880;-0.518;2023-09-08T05:36:04;100697.50;;;24.68;47.31
39435;BME280;66825;51.880;-0.518;2023-09-08T05:38:30;100704.63;;;24.69;47.28
39435;BME280;66825;51.880;-0.518;2023-09-08T05:40:56;100693.59;;;24.69;47.28
39435;BME280;66825;51.880;-0.518;2023-09-08T05:43:24;100697.50;;;24.68;47.07
39435;BME280;66825;51.880;-0.518;2023-09-08T05:45:50;100701.38;;;24.67;47.10
39435;BME280;66825;51.880;-0.518;2023-09-08T05:48:16;100706.91;;;24.67;47.20
39435;BME280;66825;51.880;-0.518;2023-09-08T05:50:42;100651.38;;;24.32;47.23
39435;BME280;66825;51.880;-0.518;2023-09-08T05:53:07;100715.16;;;24.67;47.23
39435;BME280;66825;51.880;-0.518;2023-09-08T05:55:33;100625.22;;;24.13;47.30
39435;BME280;66825;51.880;-0.518;2023-09-08T05:57:58;100714.66;;;24.65;47.50
39435;BME280;66825;51.880;-0.518;2023-09-08T06:00:24;100709.16;;;24.65;47.32
39435;BME280;66825;51.880;-0.518;2023-09-08T06:02:51;100718.56;;;24.64;47.13
39435;BME280;66825;51.880;-0.518;2023-09-08T06:05:17;100706.41;;;24.65;47.17
39435;BME280;66825;51.880;-0.518;2023-09-08T06:07:43;100708.72;;;24.63;47.43
39435;BME280;66825;51.880;-0.518;2023-09-08T06:10:08;100715.38;;;24.62;47.46
39435;BME280;66825;51.880;-0.518;2023-09-08T06:12:34;100656.22;;;24.22;47.13
39435;BME280;66825;51.880;-0.518;2023-09-08T06:14:59;100714.22;;;24.63;47.31
39435;BME280;66825;51.880;-0.518;2023-09-08T06:17:25;100715.38;;;24.62;47.24
39435;BME280;66825;51.880;-0.518;2023-09-08T06:19:50;100716.03;;;24.59;47.27
39435;BME280;66825;51.880;-0.518;2023-09-08T06:22:16;100725.56;;;24.62;47.54
39435;BME280;66825;51.880;-0.518;2023-09-08T06:24:41;100721.53;;;24.59;47.35
39435;BME280;66825;51.880;-0.518;2023-09-08T06:27:07;100712.81;;;24.57;47.51
39435;BME280;66825;51.880;-0.518;2023-09-08T06:29:32;100722.38;;;24.60;47.40
39435;BME280;66825;51.880;-0.518;2023-09-08T06:31:58;100716.38;;;24.57;47.19
39435;BME280;66825;51.880;-0.518;2023-09-08T06:34:24;100724.28;;;24.59;47.27
39435;BME280;66825;51.880;-0.518;2023-09-08T06:36:49;100727.41;;;24.57;47.04
39435;BME280;66825;51.880;-0.518;2023-09-08T06:39:14;100726.59;;;24.57;47.52
39435;BME280;66825;51.880;-0.518;2023-09-08T06:41:40;100709.69;;;24.46;47.08
39435;BME280;66825;51.880;-0.518;2023-09-08T06:44:05;100729.34;;;24.57;47.18
39435;BME280;66825;51.880;-0.518;2023-09-08T06:46:31;100725.00;;;24.56;47.05
39435;BME280;66825;51.880;-0.518;2023-09-08T06:48:56;100733.25;;;24.56;47.15
39435;BME280;66825;51.880;-0.518;2023-09-08T06:51:22;100730.50;;;24.56;47.56
39435;BME280;66825;51.880;-0.518;2023-09-08T06:53:57;100737.16;;;24.55;47.17
39435;BME280;66825;51.880;-0.518;2023-09-08T06:56:23;100735.19;;;24.55;47.58
39435;BME280;66825;51.880;-0.518;2023-09-08T06:58:49;100741.84;;;24.54;47.49
39435;BME280;66825;51.880;-0.518;2023-09-08T07:01:14;100750.94;;;24.55;47.47
39435;BME280;66825;51.880;-0.518;2023-09-08T07:03:40;100743.81;;;24.54;47.12
39435;BME280;66825;51.880;-0.518;2023-09-08T07:06:06;100757.56;;;24.54;47.26
39435;BME280;66825;51.880;-0.518;2023-09-08T07:08:31;100686.13;;;24.12;47.54
39435;BME280;66825;51.880;-0.518;2023-09-08T07:10:56;100715.97;;;24.34;47.39
39435;BME280;66825;51.880;-0.518;2023-09-08T07:13:22;100748.06;;;24.51;47.06
39435;BME280;66825;51.880;-0.518;2023-09-08T07:15:47;100744.81;;;24.49;47.09
39435;BME280;66825;51.880;-0.518;2023-09-08T07:18:13;100758.38;;;24.54;47.37
39435;BME280;66825;51.880;-0.518;2023-09-08T07:20:38;100758.06;;;24.56;47.31
39435;BME280;66825;51.880;-0.518;2023-09-08T07:23:04;100758.84;;;24.56;47.34
39435;BME280;66825;51.880;-0.518;2023-09-08T07:25:29;100756.88;;;24.57;47.79
39435;BME280;66825;51.880;-0.518;2023-09-08T07:27:55;100754.94;;;24.57;47.86
39435;BME280;66825;51.880;-0.518;2023-09-08T07:30:20;100749.78;;;24.56;48.42
39435;BME280;66825;51.880;-0.518;2023-09-08T07:32:46;100741.84;;;24.54;48.60
39435;BME280;66825;51.880;-0.518;2023-09-08T07:35:11;100738.78;;;24.56;48.79
39435;BME280;66825;51.880;-0.518;2023-09-08T07:37:42;100741.97;;;24.58;49.11
39435;BME280;66825;51.880;-0.518;2023-09-08T07:40:09;100745.88;;;24.57;49.30
39435;BME280;66825;51.880;-0.518;2023-09-08T07:42:35;100755.16;;;24.52;49.51
39435;BME280;66825;51.880;-0.518;2023-09-08T07:45:01;100753.34;;;24.56;49.69
39435;BME280;66825;51.880;-0.518;2023-09-08T07:47:26;100750.56;;;24.56;50.06
39435;BME280;66825;51.880;-0.518;2023-09-08T07:49:52;100751.72;;;24.55;49.91
39435;BME280;66825;51.880;-0.518;2023-09-08T07:52:17;100744.28;;;24.56;50.06
39435;BME280;66825;51.880;-0.518;2023-09-08T07:54:42;100740.69;;;24.55;50.76
39435;BME280;66825;51.880;-0.518;2023-09-08T07:57:08;100744.28;;;24.56;50.51
39435;BME280;66825;51.880;-0.518;2023-09-08T07:59:33;100748.63;;;24.57;50.94
39435;BME280;66825;51.880;-0.518;2023-09-08T08:01:59;100742.31;;;24.56;50.68
39435;BME280;66825;51.880;-0.518;2023-09-08T08:04:24;100733.25;;;24.56;51.33
39435;BME280;66825;51.880;-0.518;2023-09-08T08:06:50;100733.69;;;24.58;51.30
39435;BME280;66825;51.880;-0.518;2023-09-08T08:09:15;100739.56;;;24.56;51.56
39435;BME280;66825;51.880;-0.518;2023-09-08T08:11:41;100733.69;;;24.58;51.51
39435;BME280;66825;51.880;-0.518;2023-09-08T08:14:07;100734.53;;;24.58;52.27
39435;BME280;66825;51.880;-0.518;2023-09-08T08:16:32;100733.38;;;24.60;51.74
39435;BME280;66825;51.880;-0.518;2023-09-08T08:18:57;100725.56;;;24.62;51.57
39435;BME280;66825;51.880;-0.518;2023-09-08T08:21:24;100725.56;;;24.62;52.31
39435;BME280;66825;51.880;-0.518;2023-09-08T08:23:50;100720.16;;;24.53;52.18
39435;BME280;66825;51.880;-0.518;2023-09-08T08:26:16;100737.53;;;24.66;51.98
39435;BME280;66825;51.880;-0.518;2023-09-08T08:28:42;100747.44;;;24.67;51.93
39435;BME280;66825;51.880;-0.518;2023-09-08T08:31:08;100742.72;;;24.67;52.73
39435;BME280;66825;51.880;-0.518;2023-09-08T08:33:33;100753.50;;;24.72;52.18
39435;BME280;66825;51.880;-0.518;2023-09-08T08:35:59;100756.25;;;24.72;52.42
39435;BME280;66825;51.880;-0.518;2023-09-08T08:38:24;100754.19;;;24.69;52.16
39435;BME280;66825;51.880;-0.518;2023-09-08T08:40:49;100770.63;;;24.78;52.26
39435;BME280;66825;51.880;-0.518;2023-09-08T08:43:15;100772.22;;;24.79;52.23
39435;BME280;66825;51.880;-0.518;2023-09-08T08:45:42;100775.47;;;24.81;52.08
39435;BME280;66825;51.880;-0.518;2023-09-08T08:48:08;100727.16;;;24.50;52.60
39435;BME280;66825;51.880;-0.518;2023-09-08T08:50:35;100773.63;;;24.85;52.58
39435;BME280;66825;51.880;-0.518;2023-09-08T08:53:01;100758.69;;;24.74;53.03
39435;BME280;66825;51.880;-0.518;2023-09-08T08:55:30;100779.59;;;24.87;52.97
39435;BME280;66825;51.880;-0.518;2023-09-08T08:58:05;100772.94;;;24.88;52.99
39435;BME280;66825;51.880;-0.518;2023-09-08T09:00:35;100768.69;;;24.91;52.64
39435;BME280;66825;51.880;-0.518;2023-09-08T09:03:04;100776.59;;;24.93;52.62
39435;BME280;66825;51.880;-0.518;2023-09-08T09:05:32;100785.34;;;24.95;52.40
39435;BME280;66825;51.880;-0.518;2023-09-08T09:08:01;100710.88;;;24.45;52.58
39435;BME280;66825;51.880;-0.518;2023-09-08T09:10:30;100786.97;;;24.96;52.11
39435;BME280;66825;51.880;-0.518;2023-09-08T09:12:56;100785.91;;;25.00;52.13
39435;BME280;66825;51.880;-0.518;2023-09-08T09:15:29;100783.63;;;25.02;51.89
39435;BME280;66825;51.880;-0.518;2023-09-08T09:18:05;100782.47;;;25.03;52.30
39435;BME280;66825;51.880;-0.518;2023-09-08T09:20:31;100784.88;;;25.05;52.49
39435;BME280;66825;51.880;-0.518;2023-09-08T09:22:57;100763.63;;;24.93;52.11
39435;BME280;66825;51.880;-0.518;2023-09-08T09:25:24;100774.31;;;25.07;52.11
39435;BME280;66825;51.880;-0.518;2023-09-08T09:27:58;100781.91;;;25.10;52.27
39435;BME280;66825;51.880;-0.518;2023-09-08T09:30:25;100781.56;;;25.12;52.07
39435;BME280;66825;51.880;-0.518;2023-09-08T09:33:05;100749.97;;;24.97;52.16
39435;BME280;66825;51.880;-0.518;2023-09-08T09:35:44;100765.38;;;25.10;52.10
39435;BME280;66825;51.880;-0.518;2023-09-08T09:38:10;100755.97;;;25.11;52.03
39435;BME280;66825;51.880;-0.518;2023-09-08T09:40:36;100767.22;;;25.18;52.21
39435;BME280;66825;51.880;-0.518;2023-09-08T09:43:02;100748.50;;;25.12;51.91
39435;BME280;66825;51.880;-0.518;2023-09-08T09:45:33;100754.34;;;25.23;51.98
39435;BME280;66825;51.880;-0.518;2023-09-08T09:47:58;100754.00;;;25.24;52.18
39435;BME280;66825;51.880;-0.518;2023-09-08T09:50:28;100764.69;;;25.26;51.91
39435;BME280;66825;51.880;-0.518;2023-09-08T09:52:57;100765.94;;;25.28;52.12
39435;BME280;66825;51.880;-0.518;2023-09-08T09:55:25;100763.19;;;25.28;53.19
39435;BME280;66825;51.880;-0.518;2023-09-08T09:57:52;100760.88;;;25.30;52.25
39435;BME280;66825;51.880;-0.518;2023-09-08T10:00:21;100765.25;;;25.31;52.37
39435;BME280;66825;51.880;-0.518;2023-09-08T10:02:47;100760.97;;;25.34;52.45
39435;BME280;66825;51.880;-0.518;2023-09-08T10:05:13;100697.47;;;24.93;52.07
39435;BME280;66825;51.880;-0.518;2023-09-08T10:07:39;100772.13;;;25.37;52.52
39435;BME280;66825;51.880;-0.518;2023-09-08T10:10:06;100764.72;;;25.38;53.35
39435;BME280;66825;51.880;-0.518;2023-09-08T10:12:33;100713.00;;;24.98;53.67
39435;BME280;66825;51.880;-0.518;2023-09-08T10:15:02;100773.56;;;25.44;52.86
39435;BME280;66825;51.880;-0.518;2023-09-08T10:17:30;100773.19;;;25.45;52.91
39435;BME280;66825;51.880;-0.518;2023-09-08T10:19:58;100772.50;;;25.48;53.79
39435;BME280;66825;51.880;-0.518;2023-09-08T10:22:29;100767.09;;;25.52;53.58
39435;BME280;66825;51.880;-0.518;2023-09-08T10:24:57;100706.47;;;25.15;53.29
39435;BME280;66825;51.880;-0.518;2023-09-08T10:27:28;100767.31;;;25.59;52.56
39435;BME280;66825;51.880;-0.518;2023-09-08T10:29:55;100759.16;;;25.50;52.23
39435;BME280;66825;51.880;-0.518;2023-09-08T10:32:21;100780.06;;;25.64;52.29
39435;BME280;66825;51.880;-0.518;2023-09-08T10:34:48;100774.22;;;25.65;52.04
39435;BME280;66825;51.880;-0.518;2023-09-08T10:37:22;100771.88;;;25.67;52.20
39435;BME280;66825;51.880;-0.518;2023-09-08T10:39:49;100779.84;;;25.69;52.13
39435;BME280;66825;51.880;-0.518;2023-09-08T10:47:39;100783.97;;;25.75;51.48
39435;BME280;66825;51.880;-0.518;2023-09-08T10:50:06;100774.53;;;25.76;51.81
39435;BME280;66825;51.880;-0.518;2023-09-08T10:52:34;100764.44;;;25.68;51.65
39435;BME280;66825;51.880;-0.518;2023-09-08T10:55:00;100775.44;;;25.80;51.47
39435;BME280;66825;51.880;-0.518;2023-09-08T10:57:27;100776.69;;;25.83;51.62
39435;BME280;66825;51.880;-0.518;2023-09-08T11:02:40;100776.78;;;25.87;51.61
39435;BME280;66825;51.880;-0.518;2023-09-08T11:05:11;100767.34;;;25.88;51.38
39435;BME280;66825;51.880;-0.518;2023-09-08T11:07:39;100772.19;;;25.91;51.46
39435;BME280;66825;51.880;-0.518;2023-09-08T11:10:06;100762.75;;;25.92;51.23
39435;BME280;66825;51.880;-0.518;2023-09-08T11:12:33;100715.97;;;25.55;51.38
39435;BME280;66825;51.880;-0.518;2023-09-08T11:14:59;100766.78;;;25.94;51.24
39435;BME280;66825;51.880;-0.518;2023-09-08T11:17:34;100742.31;;;25.80;51.23
39435;BME280;66825;51.880;-0.518;2023-09-08T11:20:01;100761.25;;;25.94;51.25
39435;BME280;66825;51.880;-0.518;2023-09-08T11:22:34;100761.34;;;25.98;51.32
39435;BME280;66825;51.880;-0.518;2023-09-08T11:25:00;100754.13;;;25.93;51.47
39435;BME280;66825;51.880;-0.518;2023-09-08T11:27:27;100763.06;;;26.03;51.40
39435;BME280;66825;51.880;-0.518;2023-09-08T11:29:54;100764.66;;;26.04;51.38
39435;BME280;66825;51.880;-0.518;2023-09-08T11:32:19;100765.94;;;26.06;51.11
39435;BME280;66825;51.880;-0.518;2023-09-08T11:34:45;100768.81;;;26.10;51.17
39435;BME280;66825;51.880;-0.518;2023-09-08T11:37:11;100772.00;;;26.12;51.35
39435;BME280;66825;51.880;-0.518;2023-09-08T11:39:42;100768.94;;;26.13;51.16
39435;BME280;66825;51.880;-0.518;2023-09-08T11:42:17;100768.22;;;26.16;51.24
39435;BME280;66825;51.880;-0.518;2023-09-08T11:44:42;100769.13;;;26.21;50.93
39435;BME280;66825;51.880;-0.518;2023-09-08T11:47:10;100772.31;;;26.23;51.11
39435;BME280;66825;51.880;-0.518;2023-09-08T11:49:36;100762.53;;;26.25;51.19
39435;BME280;66825;51.880;-0.518;2023-09-08T11:52:02;100746.66;;;26.22;51.05
39435;BME280;66825;51.880;-0.518;2023-09-08T11:54:29;100756.75;;;26.30;50.81
39435;BME280;66825;51.880;-0.518;2023-09-08T11:56:58;100761.94;;;26.32;50.75
39435;BME280;66825;51.880;-0.518;2023-09-08T11:59:25;100705.00;;;25.99;50.74
39435;BME280;66825;51.880;-0.518;2023-09-08T12:01:51;100758.69;;;26.30;50.31
39435;BME280;66825;51.880;-0.518;2023-09-08T12:04:18;100753.19;;;26.30;50.44
39435;BME280;66825;51.880;-0.518;2023-09-08T12:06:45;100760.16;;;26.40;50.52
39435;BME280;66825;51.880;-0.518;2023-09-08T12:09:11;100761.44;;;26.42;50.38
39435;BME280;66825;51.880;-0.518;2023-09-08T12:11:37;100763.03;;;26.43;50.75
39435;BME280;66825;51.880;-0.518;2023-09-08T12:14:07;100765.06;;;26.46;50.50
39435;BME280;66825;51.880;-0.518;2023-09-08T12:16:34;100756.78;;;26.46;50.47
39435;BME280;66825;51.880;-0.518;2023-09-08T12:19:00;100753.66;;;26.48;50.43
39435;BME280;66825;51.880;-0.518;2023-09-08T12:21:26;100751.34;;;26.50;50.30
39435;BME280;66825;51.880;-0.518;2023-09-08T12:23:53;100751.81;;;26.52;50.58
39435;BME280;66825;51.880;-0.518;2023-09-08T12:26:18;100745.13;;;26.53;50.13
39435;BME280;66825;51.880;-0.518;2023-09-08T12:28:45;100745.13;;;26.53;49.91
39435;BME280;66825;51.880;-0.518;2023-09-08T12:31:13;100739.25;;;26.55;49.89
39435;BME280;66825;51.880;-0.518;2023-09-08T12:33:39;100728.69;;;26.44;49.58
39435;BME280;66825;51.880;-0.518;2023-09-08T12:36:15;100747.63;;;26.58;49.56
39435;BME280;66825;51.880;-0.518;2023-09-08T12:38:41;100741.22;;;26.54;49.57
39435;BME280;66825;51.880;-0.518;2023-09-08T12:41:07;100743.72;;;26.59;49.71
39435;BME280;66825;51.880;-0.518;2023-09-08T12:43:33;100734.59;;;26.59;49.78
39435;BME280;66825;51.880;-0.518;2023-09-08T12:45:59;100686.03;;;26.26;49.73
39435;BME280;66825;51.880;-0.518;2023-09-08T12:48:25;100741.03;;;26.63;49.90
39435;BME280;66825;51.880;-0.518;2023-09-08T12:50:50;100739.16;;;26.67;49.66